Terminal Aerodrome Forecast
Issued by NWS Wilmington, NC

Home | Current Version | Previous Version | Text Only | Print | Product List | Glossary On
Versions: 1 2 3 4 5 6 7 8 9 10 11 12 13 14 15 16
068
FTUS42 KILM 011728
TAFMYR
TAF
KMYR 011728Z 0118/0218 17009KT P6SM VCSH SCT035 BKN090
     FM020200 19003KT P6SM SCT045 SCT250
     FM020900 VRB03KT 5SM BR SCT025 BKN090
     FM021400 35005KT P6SM SCT040=

USA.gov is the U.S. government's official web portal to all federal, state and local government web resources and services.